SAS7791 EKCH-LGSA
Flight info
| Callsign | SAS7791 |
|---|---|
| Flight time | N/A |
| Altitude | 35000 |
| Route | SALLO M44 KOGIM M725 MASOR DCT POGAB DCT OMELO DCT VOZ DCT LANUX DCT SASAL DCT KOPRY DCT LURID DCT GACMO DCT PETAK DCT DIMIS UL604 TRL UL612 RUSOS |
| Aircraft | A320/M-SDE1FGHIJ1RWXYZ/LB1 |
Departure
| Time | 2026-04-25 05:46 |
|---|---|
| Airport | Copenhagen Kastrup Airport (EKCH) |
Arrival
| Time | N/A |
|---|---|
| Airport | Chania International Airport (LGSA) |
| Time | Latitude | Longitude | Altitude | Speed | Heading |
|---|---|---|---|---|---|
| 2026-04-25 04:59 | 55.62809 | 12.64224 | 17 ft | 0 kts | 123° |
| 2026-04-25 05:35 | 55.62812 | 12.64216 | 18 ft | 4 kts | 123° |
| 2026-04-25 05:35 | 55.62827 | 12.64176 | 17 ft | 3 kts | 125° |
| 2026-04-25 05:35 | 55.62838 | 12.64145 | 17 ft | 4 kts | 107° |
| 2026-04-25 05:36 | 55.62838 | 12.64107 | 19 ft | 2 kts | 66° |
| 2026-04-25 05:36 | 55.62827 | 12.64065 | 17 ft | 3 kts | 66° |
| 2026-04-25 05:36 | 55.62819 | 12.64029 | 17 ft | 4 kts | 81° |
| 2026-04-25 05:36 | 55.62820 | 12.63990 | 17 ft | 2 kts | 103° |
| 2026-04-25 05:37 | 55.62826 | 12.63945 | 17 ft | 4 kts | 103° |
| 2026-04-25 05:37 | 55.62833 | 12.63899 | 17 ft | 4 kts | 104° |
| 2026-04-25 05:37 | 55.62835 | 12.63882 | 17 ft | 1 kts | 104° |
| 2026-04-25 05:39 | 55.62835 | 12.63883 | 17 ft | 1 kts | 104° |
| 2026-04-25 05:39 | 55.62831 | 12.63908 | 18 ft | 4 kts | 109° |
| 2026-04-25 05:40 | 55.62807 | 12.63952 | 17 ft | 6 kts | 148° |
| 2026-04-25 05:40 | 55.62763 | 12.63947 | 18 ft | 7 kts | 205° |
| 2026-04-25 05:40 | 55.62715 | 12.63891 | 18 ft | 9 kts | 213° |
| 2026-04-25 05:40 | 55.62664 | 12.63855 | 17 ft | 8 kts | 175° |
| 2026-04-25 05:41 | 55.62621 | 12.63932 | 17 ft | 10 kts | 123° |
| 2026-04-25 05:41 | 55.62582 | 12.64040 | 17 ft | 11 kts | 123° |
| 2026-04-25 05:41 | 55.62537 | 12.64161 | 18 ft | 12 kts | 123° |
| 2026-04-25 05:41 | 55.62489 | 12.64291 | 17 ft | 13 kts | 125° |
| 2026-04-25 05:42 | 55.62436 | 12.64409 | 17 ft | 11 kts | 128° |
| 2026-04-25 05:42 | 55.62375 | 12.64444 | 17 ft | 10 kts | 192° |
| 2026-04-25 05:42 | 55.62298 | 12.64407 | 16 ft | 13 kts | 195° |
| 2026-04-25 05:42 | 55.62202 | 12.64349 | 16 ft | 16 kts | 205° |
| 2026-04-25 05:43 | 55.62107 | 12.64269 | 19 ft | 15 kts | 205° |
| 2026-04-25 05:43 | 55.62007 | 12.64187 | 17 ft | 16 kts | 205° |
| 2026-04-25 05:43 | 55.61915 | 12.64107 | 18 ft | 15 kts | 206° |
| 2026-04-25 05:43 | 55.61831 | 12.64069 | 17 ft | 11 kts | 180° |
| 2026-04-25 05:44 | 55.61755 | 12.64079 | 18 ft | 11 kts | 176° |
| 2026-04-25 05:44 | 55.61675 | 12.64089 | 21 ft | 11 kts | 176° |
| 2026-04-25 05:44 | 55.61617 | 12.64063 | 21 ft | 8 kts | 219° |
| 2026-04-25 05:44 | 55.61602 | 12.64039 | 21 ft | 0 kts | 221° |
| 2026-04-25 05:45 | 55.61599 | 12.64034 | 20 ft | 5 kts | 221° |
| 2026-04-25 05:45 | 55.61417 | 12.63752 | 19 ft | 69 kts | 221° |
| 2026-04-25 05:45 | 55.60903 | 12.62957 | 19 ft | 125 kts | 221° |
| 2026-04-25 05:45 | 55.60134 | 12.61768 | 28 ft | 166 kts | 220° |
| 2026-04-25 05:46 | 55.59275 | 12.60463 | 596 ft | 158 kts | 225° |
| 2026-04-25 05:46 | 55.58437 | 12.59200 | 1161 ft | 159 kts | 226° |
| 2026-04-25 05:46 | 55.57578 | 12.57904 | 1519 ft | 169 kts | 226° |
| 2026-04-25 05:46 | 55.56653 | 12.56463 | 1791 ft | 184 kts | 226° |
| 2026-04-25 05:47 | 55.55555 | 12.55119 | 2163 ft | 203 kts | 211° |
| 2026-04-25 05:47 | 55.54106 | 12.54410 | 2435 ft | 232 kts | 191° |
| 2026-04-25 05:47 | 55.52404 | 12.54605 | 2835 ft | 258 kts | 172° |
| 2026-04-25 05:47 | 55.50661 | 12.55770 | 3380 ft | 278 kts | 155° |
| 2026-04-25 05:48 | 55.49016 | 12.57704 | 4065 ft | 289 kts | 147° |
| 2026-04-25 05:48 | 55.47378 | 12.59832 | 4790 ft | 296 kts | 147° |
| 2026-04-25 05:48 | 55.45725 | 12.62033 | 5568 ft | 299 kts | 145° |
| 2026-04-25 05:48 | 55.44096 | 12.64359 | 6335 ft | 304 kts | 143° |
| 2026-04-25 05:49 | 55.42464 | 12.66766 | 7072 ft | 308 kts | 143° |
| 2026-04-25 05:49 | 55.40812 | 12.69209 | 7814 ft | 312 kts | 143° |
| 2026-04-25 05:49 | 55.39134 | 12.71670 | 8532 ft | 315 kts | 143° |
| 2026-04-25 05:49 | 55.37433 | 12.74132 | 9233 ft | 319 kts | 144° |
| 2026-04-25 05:50 | 55.35704 | 12.76616 | 9916 ft | 322 kts | 144° |
| 2026-04-25 05:50 | 55.33922 | 12.79166 | 10200 ft | 342 kts | 144° |
| 2026-04-25 05:50 | 55.32014 | 12.81876 | 10340 ft | 364 kts | 144° |
| 2026-04-25 05:50 | 55.30013 | 12.84715 | 10722 ft | 374 kts | 144° |
| 2026-04-25 05:51 | 55.27970 | 12.87614 | 11298 ft | 379 kts | 144° |
| 2026-04-25 05:51 | 55.25911 | 12.90540 | 11886 ft | 383 kts | 144° |
| 2026-04-25 05:51 | 55.23828 | 12.93507 | 12463 ft | 387 kts | 144° |
| 2026-04-25 05:51 | 55.21749 | 12.96460 | 13016 ft | 391 kts | 144° |
| 2026-04-25 05:52 | 55.19625 | 12.99466 | 13588 ft | 395 kts | 144° |
| 2026-04-25 05:52 | 55.17469 | 13.02505 | 14157 ft | 398 kts | 144° |
| 2026-04-25 05:52 | 55.15305 | 13.05558 | 14673 ft | 401 kts | 144° |
| 2026-04-25 05:52 | 55.13121 | 13.08636 | 15178 ft | 406 kts | 144° |
| 2026-04-25 05:53 | 55.10911 | 13.11745 | 15694 ft | 409 kts | 144° |
| 2026-04-25 05:53 | 55.08684 | 13.14873 | 16175 ft | 413 kts | 144° |
| 2026-04-25 05:53 | 55.06438 | 13.18015 | 16688 ft | 416 kts | 144° |
| 2026-04-25 05:53 | 55.04169 | 13.21181 | 17180 ft | 419 kts | 144° |
| 2026-04-25 05:54 | 55.01887 | 13.24366 | 17669 ft | 422 kts | 144° |
| 2026-04-25 05:54 | 55.00366 | 13.26488 | 17988 ft | 424 kts | 144° |
| 2026-04-25 05:54 | 54.95711 | 13.32974 | 18973 ft | 432 kts | 144° |
| 2026-04-25 05:55 | 54.93252 | 13.35973 | 19491 ft | 431 kts | 154° |
| 2026-04-25 05:55 | 54.90558 | 13.38220 | 19989 ft | 429 kts | 164° |
| 2026-04-25 05:55 | 54.87701 | 13.39665 | 20475 ft | 426 kts | 174° |
| 2026-04-25 05:55 | 54.84783 | 13.40478 | 20977 ft | 425 kts | 177° |
| 2026-04-25 05:56 | 54.81852 | 13.41251 | 21463 ft | 427 kts | 177° |
| 2026-04-25 05:56 | 54.78904 | 13.42037 | 21911 ft | 430 kts | 177° |
| 2026-04-25 05:56 | 54.75938 | 13.42829 | 22356 ft | 432 kts | 177° |
| 2026-04-25 05:56 | 54.72956 | 13.43627 | 22784 ft | 434 kts | 177° |
| 2026-04-25 05:57 | 54.69965 | 13.44433 | 23204 ft | 436 kts | 177° |
| 2026-04-25 05:57 | 54.66960 | 13.45243 | 23605 ft | 438 kts | 177° |
| 2026-04-25 05:57 | 54.63938 | 13.46054 | 23999 ft | 440 kts | 177° |
| 2026-04-25 05:57 | 54.60906 | 13.46864 | 24381 ft | 442 kts | 177° |
| 2026-04-25 05:58 | 54.57858 | 13.47674 | 24746 ft | 444 kts | 177° |
| 2026-04-25 05:58 | 54.54830 | 13.48476 | 25104 ft | 446 kts | 176° |
| 2026-04-25 05:58 | 54.51758 | 13.49288 | 25462 ft | 448 kts | 176° |
| 2026-04-25 05:58 | 54.48673 | 13.50099 | 25827 ft | 449 kts | 177° |
| 2026-04-25 05:59 | 54.45578 | 13.50897 | 26158 ft | 450 kts | 177° |
| 2026-04-25 05:59 | 54.42470 | 13.51688 | 26480 ft | 452 kts | 177° |
| 2026-04-25 05:59 | 54.39350 | 13.52475 | 26798 ft | 454 kts | 177° |
| 2026-04-25 05:59 | 54.36217 | 13.53260 | 27117 ft | 456 kts | 177° |
| 2026-04-25 06:00 | 54.33077 | 13.54043 | 27428 ft | 457 kts | 177° |
| 2026-04-25 06:00 | 54.29924 | 13.54832 | 27747 ft | 459 kts | 176° |
| 2026-04-25 06:00 | 54.26762 | 13.55640 | 28052 ft | 461 kts | 176° |
| 2026-04-25 06:00 | 54.23588 | 13.56471 | 28354 ft | 462 kts | 176° |
| 2026-04-25 06:01 | 54.20403 | 13.57317 | 28681 ft | 463 kts | 176° |
| 2026-04-25 06:01 | 54.17226 | 13.58164 | 29091 ft | 461 kts | 176° |
| 2026-04-25 06:01 | 54.14063 | 13.59004 | 29496 ft | 460 kts | 176° |
| 2026-04-25 06:01 | 54.10905 | 13.59833 | 29882 ft | 458 kts | 176° |
| 2026-04-25 06:02 | 54.07748 | 13.60651 | 30287 ft | 457 kts | 176° |
| 2026-04-25 06:02 | 54.04607 | 13.61458 | 30675 ft | 456 kts | 176° |
| 2026-04-25 06:02 | 54.01473 | 13.62262 | 31065 ft | 454 kts | 176° |
| 2026-04-25 06:02 | 53.98352 | 13.63061 | 31440 ft | 453 kts | 176° |
| 2026-04-25 06:03 | 53.95238 | 13.63855 | 31820 ft | 452 kts | 176° |
| 2026-04-25 06:03 | 53.92135 | 13.64642 | 32187 ft | 450 kts | 177° |
| 2026-04-25 06:03 | 53.89031 | 13.65324 | 32542 ft | 449 kts | 179° |
| 2026-04-25 06:03 | 53.85934 | 13.65879 | 32883 ft | 447 kts | 180° |
| 2026-04-25 06:04 | 53.82838 | 13.66361 | 33226 ft | 446 kts | 180° |
| 2026-04-25 06:04 | 53.79748 | 13.66817 | 33571 ft | 445 kts | 180° |
| 2026-04-25 06:04 | 53.76665 | 13.67278 | 33891 ft | 444 kts | 180° |
| 2026-04-25 06:04 | 53.73590 | 13.67756 | 34190 ft | 444 kts | 180° |
| 2026-04-25 06:05 | 53.70514 | 13.68261 | 34471 ft | 444 kts | 180° |
| 2026-04-25 06:05 | 53.67442 | 13.68785 | 34752 ft | 443 kts | 179° |
| 2026-04-25 06:05 | 53.64371 | 13.69315 | 34924 ft | 444 kts | 179° |
| 2026-04-25 06:05 | 53.61278 | 13.69847 | 34963 ft | 449 kts | 179° |
| 2026-04-25 06:06 | 53.54972 | 13.70918 | 34962 ft | 461 kts | 179° |
| 2026-04-25 06:06 | 53.48560 | 13.71998 | 34961 ft | 463 kts | 179° |
| 2026-04-25 06:07 | 53.42158 | 13.73062 | 34962 ft | 464 kts | 180° |
| 2026-04-25 06:07 | 53.35732 | 13.74130 | 34963 ft | 464 kts | 180° |
| 2026-04-25 06:08 | 53.29305 | 13.75197 | 34981 ft | 464 kts | 180° |
| 2026-04-25 06:08 | 53.22869 | 13.76259 | 34999 ft | 465 kts | 180° |
| 2026-04-25 06:09 | 53.16429 | 13.77319 | 34999 ft | 465 kts | 180° |
| 2026-04-25 06:09 | 53.09985 | 13.78383 | 35006 ft | 465 kts | 180° |
| 2026-04-25 06:10 | 53.03537 | 13.79441 | 35011 ft | 465 kts | 181° |
| 2026-04-25 06:10 | 52.97114 | 13.80490 | 34998 ft | 467 kts | 181° |
| 2026-04-25 06:11 | 52.90649 | 13.81550 | 35011 ft | 467 kts | 181° |
| 2026-04-25 06:11 | 52.84185 | 13.82588 | 35009 ft | 467 kts | 181° |
| 2026-04-25 06:12 | 52.77719 | 13.83631 | 35023 ft | 467 kts | 181° |
| 2026-04-25 06:12 | 52.71252 | 13.84681 | 35031 ft | 467 kts | 181° |
| 2026-04-25 06:13 | 52.64786 | 13.85726 | 35040 ft | 467 kts | 181° |
| 2026-04-25 06:14 | 52.55081 | 13.87280 | 35047 ft | 467 kts | 182° |
| 2026-04-25 06:14 | 52.48614 | 13.88307 | 35055 ft | 467 kts | 182° |
| 2026-04-25 06:15 | 52.42142 | 13.89343 | 35060 ft | 467 kts | 182° |
| 2026-04-25 06:15 | 52.35672 | 13.90372 | 35065 ft | 467 kts | 182° |
| 2026-04-25 06:16 | 52.29215 | 13.91398 | 35072 ft | 467 kts | 182° |
| 2026-04-25 06:16 | 52.22753 | 13.92410 | 35073 ft | 467 kts | 182° |
| 2026-04-25 06:17 | 52.16288 | 13.93420 | 35069 ft | 466 kts | 182° |
| 2026-04-25 06:17 | 52.09826 | 13.94441 | 35066 ft | 466 kts | 182° |
| 2026-04-25 06:18 | 52.03372 | 13.95459 | 35064 ft | 467 kts | 182° |
| 2026-04-25 06:18 | 51.96902 | 13.96467 | 35070 ft | 466 kts | 182° |
| 2026-04-25 06:19 | 51.90440 | 13.97473 | 35064 ft | 466 kts | 182° |
| 2026-04-25 06:19 | 51.83985 | 13.98448 | 35064 ft | 465 kts | 184° |
| 2026-04-25 06:20 | 51.77557 | 13.98816 | 35061 ft | 460 kts | 188° |
| 2026-04-25 06:20 | 51.71167 | 13.98736 | 35063 ft | 459 kts | 188° |
| 2026-04-25 06:21 | 51.64773 | 13.98684 | 35063 ft | 460 kts | 188° |
| 2026-04-25 06:21 | 51.58399 | 13.98775 | 35065 ft | 461 kts | 187° |
| 2026-04-25 06:22 | 51.51985 | 13.98929 | 35070 ft | 461 kts | 187° |
| 2026-04-25 06:22 | 51.45566 | 13.99066 | 35074 ft | 460 kts | 187° |
| 2026-04-25 06:23 | 51.39169 | 13.99166 | 35066 ft | 460 kts | 187° |
| 2026-04-25 06:23 | 51.32776 | 13.99271 | 35070 ft | 460 kts | 187° |
| 2026-04-25 06:24 | 51.26380 | 13.99375 | 35073 ft | 459 kts | 187° |
| 2026-04-25 06:24 | 51.19986 | 13.99477 | 35072 ft | 460 kts | 187° |
| 2026-04-25 06:25 | 51.13592 | 13.99582 | 35068 ft | 460 kts | 187° |
| 2026-04-25 06:25 | 51.07191 | 13.99685 | 35071 ft | 460 kts | 187° |
| 2026-04-25 06:26 | 51.00792 | 13.99796 | 35076 ft | 459 kts | 187° |
| 2026-04-25 06:26 | 50.94397 | 13.99897 | 35072 ft | 459 kts | 187° |
| 2026-04-25 06:27 | 50.88045 | 14.00004 | 35072 ft | 459 kts | 186° |
| 2026-04-25 06:27 | 50.81650 | 14.01654 | 35063 ft | 477 kts | 167° |
| 2026-04-25 06:28 | 50.75497 | 14.05776 | 35061 ft | 481 kts | 162° |
| 2026-04-25 06:28 | 50.69368 | 14.09998 | 35063 ft | 481 kts | 162° |
| 2026-04-25 06:29 | 50.63215 | 14.14197 | 35065 ft | 481 kts | 162° |
| 2026-04-25 06:29 | 50.57069 | 14.18390 | 35067 ft | 481 kts | 162° |
| 2026-04-25 06:30 | 50.50923 | 14.22566 | 35077 ft | 481 kts | 162° |
| 2026-04-25 06:30 | 50.44776 | 14.26740 | 35082 ft | 481 kts | 162° |
| 2026-04-25 06:31 | 50.38629 | 14.30902 | 35079 ft | 481 kts | 162° |
| 2026-04-25 06:31 | 50.32485 | 14.35037 | 35080 ft | 480 kts | 162° |
| 2026-04-25 06:32 | 50.26344 | 14.39162 | 35074 ft | 480 kts | 162° |
| 2026-04-25 06:32 | 50.20211 | 14.43280 | 35068 ft | 479 kts | 162° |
| 2026-04-25 06:33 | 50.14079 | 14.47393 | 35068 ft | 479 kts | 162° |
| 2026-04-25 06:33 | 50.07979 | 14.51452 | 35069 ft | 479 kts | 162° |